NKS422 KATL-KBNA
Flight info
| Callsign | NKS422 |
|---|---|
| Flight time | 0h 40m |
| Altitude | 26000 |
| Route | PENCL2 PENCL JAGIR SWFFT3 |
| Aircraft | A320/M-SDE3FGHIRWY/LB1 |
Departure
| Time | 2026-05-07 01:57 |
|---|---|
| Airport | Hartsfield Jackson Atlanta International Airport (KATL) |
Arrival
| Time | 2026-05-07 02:37 |
|---|---|
| Airport | Nashville International Airport (KBNA) |
| Time | Latitude | Longitude | Altitude | Speed | Heading |
|---|---|---|---|---|---|
| 2026-05-07 01:25 | 33.63787 | -84.42982 | 1036 ft | 0 kts | 91° |
| 2026-05-07 01:43 | 33.63788 | -84.43010 | 1035 ft | 4 kts | 88° |
| 2026-05-07 01:44 | 33.63784 | -84.43042 | 1035 ft | 4 kts | 66° |
| 2026-05-07 01:44 | 33.63769 | -84.43065 | 1035 ft | 4 kts | 12° |
| 2026-05-07 01:44 | 33.63758 | -84.43066 | 1035 ft | 1 kts | 359° |
| 2026-05-07 01:48 | 33.63771 | -84.43066 | 1035 ft | 6 kts | 359° |
| 2026-05-07 01:49 | 33.63816 | -84.43067 | 1035 ft | 7 kts | 0° |
| 2026-05-07 01:49 | 33.63866 | -84.43066 | 1035 ft | 8 kts | 0° |
| 2026-05-07 01:49 | 33.63933 | -84.43065 | 1035 ft | 11 kts | 0° |
| 2026-05-07 01:49 | 33.64015 | -84.43064 | 1035 ft | 12 kts | 360° |
| 2026-05-07 01:50 | 33.64099 | -84.43066 | 1035 ft | 12 kts | 360° |
| 2026-05-07 01:50 | 33.64173 | -84.43065 | 1035 ft | 9 kts | 0° |
| 2026-05-07 01:50 | 33.64228 | -84.43065 | 1035 ft | 8 kts | 0° |
| 2026-05-07 01:50 | 33.64298 | -84.43065 | 1035 ft | 13 kts | 0° |
| 2026-05-07 01:51 | 33.64402 | -84.43065 | 1035 ft | 14 kts | 360° |
| 2026-05-07 01:51 | 33.64460 | -84.43008 | 1036 ft | 12 kts | 89° |
| 2026-05-07 01:51 | 33.64459 | -84.42891 | 1035 ft | 17 kts | 90° |
| 2026-05-07 01:51 | 33.64464 | -84.42742 | 1035 ft | 18 kts | 83° |
| 2026-05-07 01:52 | 33.64458 | -84.42597 | 1035 ft | 17 kts | 107° |
| 2026-05-07 01:52 | 33.64470 | -84.42469 | 1035 ft | 16 kts | 88° |
| 2026-05-07 01:52 | 33.64469 | -84.42324 | 1035 ft | 19 kts | 91° |
| 2026-05-07 01:52 | 33.64509 | -84.42182 | 1035 ft | 18 kts | 57° |
| 2026-05-07 01:53 | 33.64543 | -84.42051 | 1035 ft | 16 kts | 91° |
| 2026-05-07 01:53 | 33.64543 | -84.41905 | 1035 ft | 18 kts | 90° |
| 2026-05-07 01:53 | 33.64543 | -84.41763 | 1036 ft | 16 kts | 90° |
| 2026-05-07 01:53 | 33.64543 | -84.41637 | 1036 ft | 14 kts | 90° |
| 2026-05-07 01:54 | 33.64543 | -84.41525 | 1036 ft | 13 kts | 90° |
| 2026-05-07 01:54 | 33.64543 | -84.41404 | 1036 ft | 16 kts | 90° |
| 2026-05-07 01:54 | 33.64544 | -84.41270 | 1036 ft | 17 kts | 90° |
| 2026-05-07 01:54 | 33.64543 | -84.41128 | 1036 ft | 18 kts | 90° |
| 2026-05-07 01:55 | 33.64544 | -84.40977 | 1035 ft | 19 kts | 90° |
| 2026-05-07 01:55 | 33.64552 | -84.40820 | 1035 ft | 19 kts | 68° |
| 2026-05-07 01:55 | 33.64570 | -84.40678 | 1034 ft | 16 kts | 91° |
| 2026-05-07 01:55 | 33.64601 | -84.40571 | 1034 ft | 13 kts | 20° |
| 2026-05-07 01:56 | 33.64678 | -84.40600 | 1033 ft | 11 kts | 297° |
| 2026-05-07 01:56 | 33.64678 | -84.40706 | 1033 ft | 24 kts | 267° |
| 2026-05-07 01:56 | 33.64676 | -84.41179 | 1036 ft | 87 kts | 270° |
| 2026-05-07 01:56 | 33.64678 | -84.42114 | 1033 ft | 135 kts | 269° |
| 2026-05-07 01:57 | 33.64674 | -84.43398 | 1141 ft | 165 kts | 267° |
| 2026-05-07 01:57 | 33.64677 | -84.44720 | 1850 ft | 159 kts | 267° |
| 2026-05-07 01:57 | 33.64737 | -84.46058 | 2495 ft | 163 kts | 279° |
| 2026-05-07 01:57 | 33.65179 | -84.47387 | 2973 ft | 183 kts | 285° |
| 2026-05-07 01:58 | 33.65727 | -84.48878 | 3237 ft | 206 kts | 287° |
| 2026-05-07 01:58 | 33.66349 | -84.50532 | 3565 ft | 229 kts | 288° |
| 2026-05-07 01:58 | 33.67023 | -84.52368 | 4036 ft | 249 kts | 288° |
| 2026-05-07 01:58 | 33.67748 | -84.54273 | 4790 ft | 258 kts | 288° |
| 2026-05-07 01:59 | 33.68516 | -84.56236 | 5641 ft | 262 kts | 291° |
| 2026-05-07 01:59 | 33.69742 | -84.57919 | 6506 ft | 281 kts | 322° |
| 2026-05-07 01:59 | 33.71628 | -84.58695 | 7337 ft | 295 kts | 346° |
| 2026-05-07 01:59 | 33.73705 | -84.58829 | 8185 ft | 302 kts | 355° |
| 2026-05-07 02:00 | 33.75819 | -84.58677 | 9024 ft | 306 kts | 359° |
| 2026-05-07 02:00 | 33.77949 | -84.58453 | 9843 ft | 308 kts | 359° |
| 2026-05-07 02:00 | 33.80094 | -84.58256 | 10548 ft | 310 kts | 357° |
| 2026-05-07 02:00 | 33.82267 | -84.58120 | 11159 ft | 318 kts | 355° |
| 2026-05-07 02:01 | 33.84542 | -84.58148 | 11322 ft | 335 kts | 347° |
| 2026-05-07 02:01 | 33.86851 | -84.58786 | 11598 ft | 345 kts | 338° |
| 2026-05-07 02:01 | 33.89177 | -84.59575 | 12222 ft | 350 kts | 338° |
| 2026-05-07 02:01 | 33.91538 | -84.60354 | 12903 ft | 353 kts | 338° |
| 2026-05-07 02:02 | 33.93891 | -84.61114 | 13154 ft | 355 kts | 339° |
| 2026-05-07 02:02 | 33.95503 | -84.61627 | 13334 ft | 354 kts | 339° |
| 2026-05-07 02:02 | 33.97894 | -84.62385 | 13708 ft | 357 kts | 339° |
| 2026-05-07 02:02 | 34.01086 | -84.63402 | 14550 ft | 358 kts | 339° |
| 2026-05-07 02:03 | 34.04159 | -84.64388 | 15326 ft | 360 kts | 338° |
| 2026-05-07 02:03 | 34.05793 | -84.64915 | 15748 ft | 361 kts | 338° |
| 2026-05-07 02:03 | 34.08223 | -84.65701 | 16358 ft | 362 kts | 337° |
| 2026-05-07 02:04 | 34.10662 | -84.66493 | 16951 ft | 364 kts | 337° |
| 2026-05-07 02:04 | 34.13110 | -84.67288 | 17547 ft | 365 kts | 337° |
| 2026-05-07 02:04 | 34.15573 | -84.68086 | 18157 ft | 367 kts | 336° |
| 2026-05-07 02:04 | 34.18046 | -84.68888 | 18702 ft | 369 kts | 336° |
| 2026-05-07 02:05 | 34.20532 | -84.69700 | 19213 ft | 371 kts | 336° |
| 2026-05-07 02:05 | 34.23033 | -84.70517 | 19720 ft | 374 kts | 336° |
| 2026-05-07 02:05 | 34.25460 | -84.71484 | 20210 ft | 369 kts | 328° |
| 2026-05-07 02:05 | 34.27697 | -84.72933 | 20677 ft | 363 kts | 320° |
| 2026-05-07 02:06 | 34.29854 | -84.74563 | 21176 ft | 365 kts | 319° |
| 2026-05-07 02:06 | 34.32013 | -84.76195 | 21677 ft | 367 kts | 319° |
| 2026-05-07 02:06 | 34.34191 | -84.77840 | 22154 ft | 370 kts | 319° |
| 2026-05-07 02:06 | 34.36382 | -84.79492 | 22606 ft | 372 kts | 319° |
| 2026-05-07 02:07 | 34.38586 | -84.81150 | 23076 ft | 374 kts | 319° |
| 2026-05-07 02:07 | 34.43043 | -84.84505 | 23919 ft | 380 kts | 319° |
| 2026-05-07 02:07 | 34.45290 | -84.86199 | 24281 ft | 382 kts | 319° |
| 2026-05-07 02:08 | 34.47551 | -84.87908 | 24636 ft | 384 kts | 319° |
| 2026-05-07 02:08 | 34.49831 | -84.89633 | 24991 ft | 387 kts | 318° |
| 2026-05-07 02:08 | 34.52126 | -84.91366 | 25339 ft | 390 kts | 318° |
| 2026-05-07 02:08 | 34.54439 | -84.93113 | 25695 ft | 392 kts | 318° |
| 2026-05-07 02:09 | 34.56761 | -84.94870 | 25919 ft | 393 kts | 318° |
| 2026-05-07 02:09 | 34.59058 | -84.96604 | 25543 ft | 385 kts | 318° |
| 2026-05-07 02:09 | 34.61310 | -84.98298 | 25264 ft | 376 kts | 318° |
| 2026-05-07 02:09 | 34.63507 | -84.99950 | 25032 ft | 366 kts | 317° |
| 2026-05-07 02:10 | 34.65650 | -85.01569 | 24809 ft | 360 kts | 317° |
| 2026-05-07 02:10 | 34.67754 | -85.03183 | 24583 ft | 357 kts | 317° |
| 2026-05-07 02:10 | 34.69842 | -85.04806 | 24360 ft | 355 kts | 316° |
| 2026-05-07 02:10 | 34.71920 | -85.06425 | 24136 ft | 354 kts | 316° |
| 2026-05-07 02:11 | 34.73994 | -85.08030 | 23987 ft | 352 kts | 316° |
| 2026-05-07 02:11 | 34.76058 | -85.09634 | 23990 ft | 352 kts | 316° |
| 2026-05-07 02:11 | 34.78118 | -85.11234 | 23988 ft | 352 kts | 316° |
| 2026-05-07 02:11 | 34.80183 | -85.12839 | 23982 ft | 352 kts | 316° |
| 2026-05-07 02:12 | 34.82247 | -85.14444 | 23973 ft | 352 kts | 316° |
| 2026-05-07 02:12 | 34.84338 | -85.16080 | 23978 ft | 364 kts | 316° |
| 2026-05-07 02:12 | 34.86487 | -85.17762 | 23981 ft | 370 kts | 316° |
| 2026-05-07 02:12 | 34.88665 | -85.19455 | 23984 ft | 372 kts | 316° |
| 2026-05-07 02:13 | 34.90855 | -85.21146 | 23990 ft | 373 kts | 316° |
| 2026-05-07 02:13 | 34.93021 | -85.22818 | 23989 ft | 373 kts | 316° |
| 2026-05-07 02:13 | 34.95210 | -85.24511 | 23991 ft | 373 kts | 316° |
| 2026-05-07 02:13 | 34.97427 | -85.26230 | 23995 ft | 372 kts | 316° |
| 2026-05-07 02:14 | 34.99582 | -85.27908 | 23991 ft | 372 kts | 316° |
| 2026-05-07 02:14 | 35.01761 | -85.29615 | 23991 ft | 372 kts | 316° |
| 2026-05-07 02:14 | 35.03941 | -85.31321 | 23987 ft | 373 kts | 316° |
| 2026-05-07 02:14 | 35.06133 | -85.33031 | 23994 ft | 373 kts | 316° |
| 2026-05-07 02:15 | 35.08320 | -85.34734 | 23992 ft | 373 kts | 316° |
| 2026-05-07 02:15 | 35.10507 | -85.36436 | 23986 ft | 373 kts | 316° |
| 2026-05-07 02:15 | 35.12699 | -85.38145 | 23993 ft | 374 kts | 316° |
| 2026-05-07 02:15 | 35.14884 | -85.39859 | 23984 ft | 372 kts | 315° |
| 2026-05-07 02:16 | 35.16843 | -85.41824 | 23985 ft | 358 kts | 304° |
| 2026-05-07 02:16 | 35.18553 | -85.44020 | 23989 ft | 357 kts | 303° |
| 2026-05-07 02:16 | 35.20272 | -85.46222 | 23991 ft | 358 kts | 304° |
| 2026-05-07 02:16 | 35.21997 | -85.48419 | 23992 ft | 357 kts | 304° |
| 2026-05-07 02:17 | 35.23719 | -85.50605 | 23992 ft | 357 kts | 304° |
| 2026-05-07 02:17 | 35.25436 | -85.52785 | 23727 ft | 353 kts | 304° |
| 2026-05-07 02:17 | 35.27133 | -85.54941 | 23285 ft | 350 kts | 304° |
| 2026-05-07 02:17 | 35.28808 | -85.57071 | 22873 ft | 345 kts | 304° |
| 2026-05-07 02:18 | 35.30460 | -85.59175 | 22484 ft | 340 kts | 304° |
| 2026-05-07 02:18 | 35.32087 | -85.61253 | 22089 ft | 335 kts | 304° |
| 2026-05-07 02:18 | 35.33690 | -85.63303 | 21693 ft | 331 kts | 303° |
| 2026-05-07 02:18 | 35.35270 | -85.65325 | 21303 ft | 327 kts | 303° |
| 2026-05-07 02:19 | 35.36812 | -85.67297 | 20921 ft | 322 kts | 303° |
| 2026-05-07 02:19 | 35.38371 | -85.69292 | 20518 ft | 318 kts | 303° |
| 2026-05-07 02:19 | 35.39889 | -85.71239 | 20132 ft | 314 kts | 303° |
| 2026-05-07 02:19 | 35.41389 | -85.73167 | 19727 ft | 311 kts | 303° |
| 2026-05-07 02:20 | 35.42852 | -85.75049 | 19359 ft | 307 kts | 303° |
| 2026-05-07 02:20 | 35.44318 | -85.76938 | 18973 ft | 304 kts | 303° |
| 2026-05-07 02:20 | 35.45769 | -85.78807 | 18596 ft | 302 kts | 303° |
| 2026-05-07 02:20 | 35.47211 | -85.80662 | 18196 ft | 299 kts | 303° |
| 2026-05-07 02:21 | 35.48643 | -85.82504 | 17734 ft | 298 kts | 303° |
| 2026-05-07 02:21 | 35.50066 | -85.84334 | 17355 ft | 294 kts | 303° |
| 2026-05-07 02:21 | 35.51471 | -85.86142 | 16980 ft | 292 kts | 303° |
| 2026-05-07 02:21 | 35.52865 | -85.87939 | 16603 ft | 289 kts | 303° |
| 2026-05-07 02:22 | 35.54247 | -85.89719 | 16234 ft | 287 kts | 303° |
| 2026-05-07 02:22 | 35.55624 | -85.91501 | 15797 ft | 287 kts | 303° |
| 2026-05-07 02:22 | 35.56986 | -85.93300 | 15364 ft | 288 kts | 303° |
| 2026-05-07 02:22 | 35.58342 | -85.95118 | 14928 ft | 289 kts | 303° |
| 2026-05-07 02:23 | 35.59696 | -85.96948 | 14500 ft | 290 kts | 304° |
| 2026-05-07 02:23 | 35.61058 | -85.98788 | 14068 ft | 292 kts | 304° |
| 2026-05-07 02:23 | 35.62430 | -86.00638 | 13612 ft | 294 kts | 304° |
| 2026-05-07 02:23 | 35.63792 | -86.02467 | 13160 ft | 294 kts | 305° |
| 2026-05-07 02:24 | 35.65178 | -86.04324 | 12730 ft | 294 kts | 305° |
| 2026-05-07 02:24 | 35.66563 | -86.06179 | 12298 ft | 295 kts | 305° |
| 2026-05-07 02:24 | 35.67949 | -86.08038 | 11870 ft | 295 kts | 306° |
| 2026-05-07 02:24 | 35.69339 | -86.09902 | 11444 ft | 295 kts | 306° |
| 2026-05-07 02:25 | 35.70729 | -86.11768 | 11027 ft | 296 kts | 306° |
| 2026-05-07 02:25 | 35.72121 | -86.13638 | 10597 ft | 296 kts | 306° |
| 2026-05-07 02:25 | 35.73517 | -86.15509 | 10217 ft | 296 kts | 307° |
| 2026-05-07 02:25 | 35.74892 | -86.17345 | 10089 ft | 287 kts | 307° |
| 2026-05-07 02:26 | 35.76223 | -86.19116 | 9924 ft | 279 kts | 307° |
| 2026-05-07 02:26 | 35.77531 | -86.20865 | 9658 ft | 276 kts | 307° |
| 2026-05-07 02:26 | 35.78819 | -86.22610 | 9293 ft | 274 kts | 304° |
| 2026-05-07 02:26 | 35.79794 | -86.24581 | 8916 ft | 268 kts | 288° |
| 2026-05-07 02:27 | 35.80407 | -86.26721 | 8589 ft | 265 kts | 285° |
| 2026-05-07 02:27 | 35.81006 | -86.28855 | 8316 ft | 261 kts | 285° |
| 2026-05-07 02:27 | 35.81577 | -86.30953 | 8062 ft | 257 kts | 285° |
| 2026-05-07 02:27 | 35.82139 | -86.33041 | 7967 ft | 256 kts | 285° |
| 2026-05-07 02:28 | 35.82699 | -86.35129 | 7973 ft | 257 kts | 285° |
| 2026-05-07 02:28 | 35.83260 | -86.37217 | 7973 ft | 257 kts | 285° |
| 2026-05-07 02:28 | 35.83822 | -86.39310 | 7793 ft | 260 kts | 285° |
| 2026-05-07 02:28 | 35.84380 | -86.41408 | 7325 ft | 261 kts | 285° |
| 2026-05-07 02:29 | 35.84933 | -86.43534 | 6848 ft | 260 kts | 285° |
| 2026-05-07 02:29 | 35.85472 | -86.45661 | 6364 ft | 254 kts | 285° |
| 2026-05-07 02:29 | 35.85977 | -86.47702 | 5867 ft | 251 kts | 285° |
| 2026-05-07 02:29 | 35.86494 | -86.49814 | 5401 ft | 256 kts | 285° |
| 2026-05-07 02:30 | 35.87001 | -86.51897 | 5067 ft | 257 kts | 285° |
| 2026-05-07 02:30 | 35.87513 | -86.54038 | 4825 ft | 258 kts | 285° |
| 2026-05-07 02:30 | 35.88017 | -86.56165 | 4591 ft | 259 kts | 285° |
| 2026-05-07 02:30 | 35.88509 | -86.58276 | 4331 ft | 260 kts | 286° |
| 2026-05-07 02:31 | 35.88992 | -86.60421 | 4094 ft | 259 kts | 286° |
| 2026-05-07 02:31 | 35.89462 | -86.62572 | 3989 ft | 260 kts | 285° |
| 2026-05-07 02:31 | 35.89927 | -86.64734 | 4002 ft | 259 kts | 285° |
| 2026-05-07 02:31 | 35.90378 | -86.66850 | 3821 ft | 254 kts | 285° |
| 2026-05-07 02:32 | 35.90813 | -86.68929 | 3570 ft | 245 kts | 286° |
| 2026-05-07 02:32 | 35.91211 | -86.70912 | 3315 ft | 232 kts | 286° |
| 2026-05-07 02:32 | 35.91675 | -86.72747 | 3074 ft | 216 kts | 302° |
| 2026-05-07 02:32 | 35.92603 | -86.74083 | 2989 ft | 198 kts | 327° |
| 2026-05-07 02:33 | 35.93826 | -86.74783 | 3005 ft | 193 kts | 350° |
| 2026-05-07 02:33 | 35.95147 | -86.74824 | 3003 ft | 189 kts | 12° |
| 2026-05-07 02:33 | 35.96408 | -86.74357 | 3001 ft | 190 kts | 18° |
| 2026-05-07 02:33 | 35.97666 | -86.73854 | 3004 ft | 189 kts | 18° |
| 2026-05-07 02:34 | 35.98925 | -86.73352 | 2927 ft | 190 kts | 18° |
| 2026-05-07 02:34 | 36.00177 | -86.72852 | 2733 ft | 188 kts | 18° |
| 2026-05-07 02:34 | 36.01423 | -86.72356 | 2492 ft | 188 kts | 18° |
| 2026-05-07 02:34 | 36.02645 | -86.71868 | 2261 ft | 179 kts | 18° |
| 2026-05-07 02:35 | 36.03778 | -86.71416 | 2024 ft | 163 kts | 17° |
| 2026-05-07 02:35 | 36.04796 | -86.71010 | 1818 ft | 146 kts | 18° |
| 2026-05-07 02:35 | 36.05714 | -86.70636 | 1581 ft | 140 kts | 18° |
| 2026-05-07 02:35 | 36.06638 | -86.70239 | 1346 ft | 137 kts | 19° |
| 2026-05-07 02:36 | 36.07537 | -86.69870 | 1125 ft | 135 kts | 16° |
| 2026-05-07 02:36 | 36.08438 | -86.69552 | 971 ft | 134 kts | 17° |
| 2026-05-07 02:36 | 36.09325 | -86.69186 | 812 ft | 135 kts | 17° |
| 2026-05-07 02:36 | 36.10222 | -86.68833 | 659 ft | 134 kts | 15° |
| 2026-05-07 02:37 | 36.11086 | -86.68484 | 576 ft | 118 kts | 12° |
| 2026-05-07 02:37 | 36.11713 | -86.68251 | 578 ft | 70 kts | 17° |
| 2026-05-07 02:37 | 36.11998 | -86.68129 | 576 ft | 19 kts | 18° |
| 2026-05-07 02:37 | 36.12130 | -86.68076 | 577 ft | 22 kts | 19° |
| 2026-05-07 02:38 | 36.12291 | -86.68010 | 580 ft | 16 kts | 13° |
| 2026-05-07 02:38 | 36.12338 | -86.67913 | 577 ft | 16 kts | 108° |
| 2026-05-07 02:38 | 36.12317 | -86.67838 | 581 ft | 7 kts | 107° |
| 2026-05-07 02:38 | 36.12302 | -86.67783 | 583 ft | 7 kts | 109° |
| 2026-05-07 02:39 | 36.12312 | -86.67726 | 581 ft | 8 kts | 34° |
| 2026-05-07 02:39 | 36.12376 | -86.67703 | 581 ft | 11 kts | 16° |
| 2026-05-07 02:39 | 36.12453 | -86.67669 | 579 ft | 13 kts | 21° |
| 2026-05-07 02:39 | 36.12529 | -86.67591 | 582 ft | 16 kts | 45° |
| 2026-05-07 02:40 | 36.12622 | -86.67495 | 579 ft | 17 kts | 29° |
| 2026-05-07 02:40 | 36.12716 | -86.67430 | 580 ft | 15 kts | 32° |
| 2026-05-07 02:40 | 36.12787 | -86.67351 | 572 ft | 10 kts | 43° |
| 2026-05-07 02:40 | 36.12828 | -86.67292 | 573 ft | 11 kts | 65° |
| 2026-05-07 02:41 | 36.12837 | -86.67192 | 570 ft | 13 kts | 99° |
| 2026-05-07 02:41 | 36.12856 | -86.67124 | 573 ft | 5 kts | 45° |
| 2026-05-07 02:41 | 36.12866 | -86.67111 | 573 ft | 0 kts | 49° |